sensor_id;sensor_type;location;lat;lon;timestamp;pressure;altitude;pressure_sealevel;temperature;humidity
20909;BME280;10614;53.198;6.570;2023-09-19T00:01:42;100420.56;;;13.77;100.00
20909;BME280;10614;53.198;6.570;2023-09-19T00:03:49;100420.56;;;13.77;100.00
20909;BME280;10614;53.198;6.570;2023-09-19T00:05:51;100405.31;;;13.66;100.00
20909;BME280;10614;53.198;6.570;2023-09-19T00:08:08;100420.56;;;13.77;100.00
20909;BME280;10614;53.198;6.570;2023-09-19T00:10:14;100409.06;;;13.62;100.00
20909;BME280;10614;53.198;6.570;2023-09-19T00:12:17;100394.59;;;13.53;100.00
20909;BME280;10614;53.198;6.570;2023-09-19T00:14:33;100425.63;;;13.65;100.00
20909;BME280;10614;53.198;6.570;2023-09-19T00:16:36;100386.63;;;13.39;100.00
20909;BME280;10614;53.198;6.570;2023-09-19T00:18:41;100401.13;;;13.47;100.00
20909;BME280;10614;53.198;6.570;2023-09-19T00:20:44;100440.47;;;13.68;100.00
20909;BME280;10614;53.198;6.570;2023-09-19T00:22:48;100443.19;;;13.66;100.00
20909;BME280;10614;53.198;6.570;2023-09-19T00:24:51;100440.47;;;13.68;100.00
20909;BME280;10614;53.198;6.570;2023-09-19T00:26:55;100448.28;;;13.69;100.00
20909;BME280;10614;53.198;6.570;2023-09-19T00:29:00;100446.50;;;13.70;100.00
20909;BME280;10614;53.198;6.570;2023-09-19T00:31:09;100434.09;;;13.56;100.00
20909;BME280;10614;53.198;6.570;2023-09-19T00:33:11;100435.78;;;13.57;100.00
20909;BME280;10614;53.198;6.570;2023-09-19T00:35:18;100446.09;;;13.62;100.00
20909;BME280;10614;53.198;6.570;2023-09-19T00:37:19;100427.38;;;13.50;100.00
20909;BME280;10614;53.198;6.570;2023-09-19T00:39:21;100453.81;;;13.50;100.00
20909;BME280;10614;53.198;6.570;2023-09-19T00:41:25;100464.56;;;13.47;100.00
20909;BME280;10614;53.198;6.570;2023-09-19T00:43:27;100456.31;;;13.38;100.00
20909;BME280;10614;53.198;6.570;2023-09-19T00:45:33;100435.25;;;13.20;100.00
20909;BME280;10614;53.198;6.570;2023-09-19T00:47:37;100466.22;;;13.34;100.00
20909;BME280;10614;53.198;6.570;2023-09-19T00:49:40;100464.06;;;13.25;100.00
20909;BME280;10614;53.198;6.570;2023-09-19T00:51:42;100468.97;;;13.33;100.00
20909;BME280;10614;53.198;6.570;2023-09-19T00:53:47;100459.66;;;13.25;100.00
20909;BME280;10614;53.198;6.570;2023-09-19T00:55:51;100466.63;;;13.26;100.00
20909;BME280;10614;53.198;6.570;2023-09-19T00:57:55;100454.13;;;13.14;100.00
20909;BME280;10614;53.198;6.570;2023-09-19T00:59:58;100480.03;;;13.23;100.00
20909;BME280;10614;53.198;6.570;2023-09-19T01:02:00;100481.13;;;13.19;100.00
20909;BME280;10614;53.198;6.570;2023-09-19T01:04:04;100484.72;;;13.18;100.00
20909;BME280;10614;53.198;6.570;2023-09-19T01:06:06;100480.22;;;13.04;100.00
20909;BME280;10614;53.198;6.570;2023-09-19T01:08:10;100492.22;;;13.10;100.00
20909;BME280;10614;53.198;6.570;2023-09-19T01:10:14;100476.22;;;12.97;100.00
20909;BME280;10614;53.198;6.570;2023-09-19T01:12:30;100472.34;;;12.87;100.00
20909;BME280;10614;53.198;6.570;2023-09-19T01:14:39;100507.56;;;13.03;100.00
20909;BME280;10614;53.198;6.570;2023-09-19T01:16:56;100491.28;;;12.95;100.00
20909;BME280;10614;53.198;6.570;2023-09-19T01:21:57;100470.41;;;12.75;100.00
20909;BME280;10614;53.198;6.570;2023-09-19T01:27:27;100502.25;;;12.87;100.00
20909;BME280;10614;53.198;6.570;2023-09-19T01:29:39;100474.31;;;12.67;100.00
20909;BME280;10614;53.198;6.570;2023-09-19T01:31:47;100448.84;;;12.51;100.00
20909;BME280;10614;53.198;6.570;2023-09-19T01:33:58;100491.72;;;13.40;100.00
20909;BME280;10614;53.198;6.570;2023-09-19T01:36:02;100506.59;;;12.73;100.00
20909;BME280;10614;53.198;6.570;2023-09-19T01:38:14;100498.94;;;12.68;100.00
20909;BME280;10614;53.198;6.570;2023-09-19T01:40:21;100482.97;;;12.54;100.00
20909;BME280;10614;53.198;6.570;2023-09-19T01:42:37;100464.47;;;12.38;100.00
20909;BME280;10614;53.198;6.570;2023-09-19T01:44:54;100480.84;;;12.44;100.00
20909;BME280;10614;53.198;6.570;2023-09-19T01:55:34;100486.03;;;12.46;100.00
20909;BME280;10614;53.198;6.570;2023-09-19T01:57:43;100465.41;;;12.37;100.00
20909;BME280;10614;53.198;6.570;2023-09-19T02:00:06;100492.09;;;12.48;100.00
20909;BME280;10614;53.198;6.570;2023-09-19T02:19:45;100518.75;;;12.59;100.00
20909;BME280;10614;53.198;6.570;2023-09-19T02:21:47;100496.66;;;12.44;100.00
20909;BME280;10614;53.198;6.570;2023-09-19T02:23:49;100520.72;;;12.56;100.00
20909;BME280;10614;53.198;6.570;2023-09-19T02:25:52;100526.06;;;12.54;100.00
20909;BME280;10614;53.198;6.570;2023-09-19T02:27:54;100529.66;;;12.53;100.00
20909;BME280;10614;53.198;6.570;2023-09-19T02:29:58;100528.88;;;12.51;100.00
20909;BME280;10614;53.198;6.570;2023-09-19T02:32:03;100520.44;;;12.44;100.00
20909;BME280;10614;53.198;6.570;2023-09-19T02:34:06;100538.75;;;12.48;100.00
20909;BME280;10614;53.198;6.570;2023-09-19T02:36:11;100531.84;;;12.45;100.00
20909;BME280;10614;53.198;6.570;2023-09-19T02:38:13;100523.31;;;12.40;100.00
20909;BME280;10614;53.198;6.570;2023-09-19T02:40:18;100531.16;;;12.41;100.00
20909;BME280;10614;53.198;6.570;2023-09-19T02:42:20;100517.25;;;12.38;100.00
20909;BME280;10614;53.198;6.570;2023-09-19T02:44:21;100501.84;;;12.30;100.00
20909;BME280;10614;53.198;6.570;2023-09-19T02:46:24;100525.19;;;12.38;100.00
20909;BME280;10614;53.198;6.570;2023-09-19T02:48:26;100501.47;;;12.20;100.00
20909;BME280;10614;53.198;6.570;2023-09-19T02:50:32;100527.81;;;12.38;100.00
20909;BME280;10614;53.198;6.570;2023-09-19T02:56:57;100474.19;;;12.04;100.00
20909;BME280;10614;53.198;6.570;2023-09-19T02:58:59;100525.53;;;12.32;100.00
20909;BME280;10614;53.198;6.570;2023-09-19T03:01:08;100516.88;;;12.28;100.00
20909;BME280;10614;53.198;6.570;2023-09-19T03:03:11;100533.09;;;12.38;100.00
20909;BME280;10614;53.198;6.570;2023-09-19T03:05:16;100498.91;;;12.19;100.00
20909;BME280;10614;53.198;6.570;2023-09-19T03:07:18;100505.56;;;12.26;100.00
20909;BME280;10614;53.198;6.570;2023-09-19T03:09:20;100517.75;;;12.29;100.00
20909;BME280;10614;53.198;6.570;2023-09-19T03:11:22;100517.75;;;12.29;100.00
20909;BME280;10614;53.198;6.570;2023-09-19T03:13:26;100511.69;;;12.27;100.00
20909;BME280;10614;53.198;6.570;2023-09-19T03:15:31;100542.50;;;12.43;100.00
20909;BME280;10614;53.198;6.570;2023-09-19T03:17:33;100501.38;;;12.22;100.00
20909;BME280;10614;53.198;6.570;2023-09-19T03:19:35;100537.34;;;12.40;100.00
20909;BME280;10614;53.198;6.570;2023-09-19T03:21:38;100514.00;;;12.33;100.00
20909;BME280;10614;53.198;6.570;2023-09-19T04:43:50;100565.25;;;12.29;100.00
20909;BME280;10614;53.198;6.570;2023-09-19T04:45:52;100586.66;;;12.40;100.00
20909;BME280;10614;53.198;6.570;2023-09-19T04:47:57;100583.25;;;12.38;100.00
20909;BME280;10614;53.198;6.570;2023-09-19T04:50:03;100586.66;;;12.40;100.00
20909;BME280;10614;53.198;6.570;2023-09-19T04:52:05;100555.88;;;12.23;100.00
20909;BME280;10614;53.198;6.570;2023-09-19T04:54:09;100580.47;;;12.41;100.00
20909;BME280;10614;53.198;6.570;2023-09-19T04:56:11;100580.38;;;12.42;100.00
20909;BME280;10614;53.198;6.570;2023-09-19T04:58:14;100564.22;;;12.31;100.00
20909;BME280;10614;53.198;6.570;2023-09-19T05:00:20;100570.38;;;12.32;100.00
20909;BME280;10614;53.198;6.570;2023-09-19T05:02:29;100589.78;;;12.48;100.00
20909;BME280;10614;53.198;6.570;2023-09-19T05:04:32;100588.91;;;12.48;100.00
20909;BME280;10614;53.198;6.570;2023-09-19T05:06:35;100580.31;;;12.44;100.00
20909;BME280;10614;53.198;6.570;2023-09-19T05:08:43;100585.59;;;12.44;100.00
20909;BME280;10614;53.198;6.570;2023-09-19T05:10:47;100562.31;;;12.35;100.00
20909;BME280;10614;53.198;6.570;2023-09-19T05:12:53;100583.56;;;12.49;100.00
20909;BME280;10614;53.198;6.570;2023-09-19T05:14:55;100587.03;;;12.50;100.00
20909;BME280;10614;53.198;6.570;2023-09-19T05:16:58;100565.63;;;12.38;100.00
20909;BME280;10614;53.198;6.570;2023-09-19T05:19:00;100587.88;;;12.50;100.00
20909;BME280;10614;53.198;6.570;2023-09-19T05:21:04;100558.88;;;12.33;100.00
20909;BME280;10614;53.198;6.570;2023-09-19T05:23:06;100573.22;;;12.44;100.00
20909;BME280;10614;53.198;6.570;2023-09-19T05:25:13;100582.69;;;12.49;100.00
20909;BME280;10614;53.198;6.570;2023-09-19T05:27:17;100578.44;;;12.46;100.00
20909;BME280;10614;53.198;6.570;2023-09-19T05:29:21;100587.13;;;12.48;100.00
20909;BME280;10614;53.198;6.570;2023-09-19T05:31:25;100565.78;;;12.35;100.00
20909;BME280;10614;53.198;6.570;2023-09-19T05:33:30;100565.47;;;12.41;100.00
20909;BME280;10614;53.198;6.570;2023-09-19T05:35:36;100592.84;;;12.56;100.00
20909;BME280;10614;53.198;6.570;2023-09-19T05:37:44;100597.81;;;12.62;100.00
20909;BME280;10614;53.198;6.570;2023-09-19T05:39:46;100594.41;;;12.60;100.00
20909;BME280;10614;53.198;6.570;2023-09-19T05:42:01;100599.44;;;12.65;100.00
20909;BME280;10614;53.198;6.570;2023-09-19T05:44:07;100603.78;;;12.66;100.00
20909;BME280;10614;53.198;6.570;2023-09-19T05:46:10;100592.63;;;12.61;100.00
20909;BME280;10614;53.198;6.570;2023-09-19T05:48:14;100594.25;;;12.63;100.00
20909;BME280;10614;53.198;6.570;2023-09-19T05:50:18;100596.72;;;12.66;100.00
20909;BME280;10614;53.198;6.570;2023-09-19T05:52:23;100590.34;;;12.71;100.00
20909;BME280;10614;53.198;6.570;2023-09-19T05:54:27;100587.09;;;12.65;100.00
20909;BME280;10614;53.198;6.570;2023-09-19T05:56:30;100597.25;;;12.73;100.00
20909;BME280;10614;53.198;6.570;2023-09-19T05:58:35;100579.00;;;12.68;100.00
20909;BME280;10614;53.198;6.570;2023-09-19T06:00:37;100589.25;;;12.75;100.00
20909;BME280;10614;53.198;6.570;2023-09-19T06:02:41;100595.31;;;12.77;100.00
20909;BME280;10614;53.198;6.570;2023-09-19T06:04:44;100600.41;;;12.80;100.00
20909;BME280;10614;53.198;6.570;2023-09-19T06:06:48;100605.53;;;12.83;100.00
20909;BME280;10614;53.198;6.570;2023-09-19T06:08:50;100605.53;;;12.83;100.00
20909;BME280;10614;53.198;6.570;2023-09-19T06:10:52;100621.22;;;12.86;100.00
20909;BME280;10614;53.198;6.570;2023-09-19T06:12:53;100618.59;;;12.86;100.00
20909;BME280;10614;53.198;6.570;2023-09-19T06:14:55;100622.78;;;12.90;100.00
20909;BME280;10614;53.198;6.570;2023-09-19T06:16:57;100619.19;;;12.91;100.00
20909;BME280;10614;53.198;6.570;2023-09-19T06:19:00;100633.00;;;12.96;100.00
20909;BME280;10614;53.198;6.570;2023-09-19T06:21:02;100633.78;;;12.98;100.00
20909;BME280;10614;53.198;6.570;2023-09-19T06:23:09;100629.22;;;13.02;100.00
20909;BME280;10614;53.198;6.570;2023-09-19T06:25:12;100637.56;;;13.10;100.00
20909;BME280;10614;53.198;6.570;2023-09-19T06:27:19;100642.91;;;13.08;100.00
20909;BME280;10614;53.198;6.570;2023-09-19T06:29:22;100649.69;;;13.14;100.00
20909;BME280;10614;53.198;6.570;2023-09-19T06:31:25;100648.66;;;13.17;100.00
20909;BME280;10614;53.198;6.570;2023-09-19T06:33:27;100639.78;;;13.18;100.00
20909;BME280;10614;53.198;6.570;2023-09-19T06:35:32;100650.03;;;13.24;100.00
20909;BME280;10614;53.198;6.570;2023-09-19T06:37:33;100639.53;;;13.22;100.00
20909;BME280;10614;53.198;6.570;2023-09-19T06:39:40;100641.88;;;13.28;100.00
20909;BME280;10614;53.198;6.570;2023-09-19T06:41:45;100638.28;;;13.29;100.00
20909;BME280;10614;53.198;6.570;2023-09-19T06:44:00;100645.97;;;13.34;100.00
20909;BME280;10614;53.198;6.570;2023-09-19T06:46:20;100631.06;;;13.33;100.00
20909;BME280;10614;53.198;6.570;2023-09-19T06:48:25;100630.63;;;13.41;100.00
20909;BME280;10614;53.198;6.570;2023-09-19T06:50:32;100642.56;;;13.48;100.00
20909;BME280;10614;53.198;6.570;2023-09-19T06:52:54;100601.97;;;13.33;100.00
20909;BME280;10614;53.198;6.570;2023-09-19T06:55:34;100609.41;;;13.42;100.00
20909;BME280;10614;53.198;6.570;2023-09-19T06:57:39;100613.22;;;13.52;100.00
20909;BME280;10614;53.198;6.570;2023-09-19T07:00:01;100621.34;;;13.65;100.00
20909;BME280;10614;53.198;6.570;2023-09-19T07:02:29;100615.63;;;13.57;100.00
20909;BME280;10614;53.198;6.570;2023-09-19T07:04:36;100608.38;;;13.61;100.00
20909;BME280;10614;53.198;6.570;2023-09-19T07:06:53;100609.31;;;13.60;100.00
20909;BME280;10614;53.198;6.570;2023-09-19T07:09:26;100629.03;;;13.70;100.00
20909;BME280;10614;53.198;6.570;2023-09-19T07:11:49;100616.13;;;13.64;100.00
20909;BME280;10614;53.198;6.570;2023-09-19T07:13:54;100624.31;;;13.75;100.00
20909;BME280;10614;53.198;6.570;2023-09-19T07:16:00;100636.00;;;13.87;100.00
20909;BME280;10614;53.198;6.570;2023-09-19T07:18:08;100639.72;;;13.99;100.00
20909;BME280;10614;53.198;6.570;2023-09-19T07:20:14;100634.25;;;14.02;100.00
20909;BME280;10614;53.198;6.570;2023-09-19T07:22:18;100627.59;;;13.94;100.00
20909;BME280;10614;53.198;6.570;2023-09-19T07:24:22;100638.25;;;14.09;100.00
20909;BME280;10614;53.198;6.570;2023-09-19T07:26:28;100653.97;;;14.12;100.00
20909;BME280;10614;53.198;6.570;2023-09-19T07:28:37;100660.19;;;14.11;100.00
20909;BME280;10614;53.198;6.570;2023-09-19T07:30:40;100605.28;;;13.84;100.00
20909;BME280;10614;53.198;6.570;2023-09-19T07:32:44;100626.56;;;13.97;100.00
20909;BME280;10614;53.198;6.570;2023-09-19T07:34:47;100643.72;;;14.06;100.00
20909;BME280;10614;53.198;6.570;2023-09-19T07:36:59;100603.28;;;13.88;100.00
20909;BME280;10614;53.198;6.570;2023-09-19T07:39:05;100642.78;;;14.07;100.00
20909;BME280;10614;53.198;6.570;2023-09-19T07:41:15;100614.66;;;13.90;100.00
20909;BME280;10614;53.198;6.570;2023-09-19T07:43:30;100598.88;;;13.88;100.00
20909;BME280;10614;53.198;6.570;2023-09-19T07:45:41;100657.00;;;14.20;100.00
20909;BME280;10614;53.198;6.570;2023-09-19T07:47:51;100654.09;;;14.25;100.00
20909;BME280;10614;53.198;6.570;2023-09-19T07:49:58;100648.88;;;14.23;100.00
20909;BME280;10614;53.198;6.570;2023-09-19T07:54:13;100632.72;;;14.28;100.00
20909;BME280;10614;53.198;6.570;2023-09-19T07:56:17;100655.19;;;14.36;100.00
20909;BME280;10614;53.198;6.570;2023-09-19T07:58:20;100655.19;;;14.36;100.00
20909;BME280;10614;53.198;6.570;2023-09-19T08:00:23;100658.84;;;14.34;100.00
20909;BME280;10614;53.198;6.570;2023-09-19T08:02:26;100649.00;;;14.22;100.00
20909;BME280;10614;53.198;6.570;2023-09-19T08:04:29;100657.06;;;14.34;100.00
20909;BME280;10614;53.198;6.570;2023-09-19T08:06:33;100651.75;;;14.34;100.00
20909;BME280;10614;53.198;6.570;2023-09-19T08:08:37;100661.53;;;14.48;100.00
20909;BME280;10614;53.198;6.570;2023-09-19T08:10:37;100638.03;;;14.58;100.00
20909;BME280;10614;53.198;6.570;2023-09-19T08:12:43;100671.75;;;14.70;100.00
20909;BME280;10614;53.198;6.570;2023-09-19T08:14:56;100666.91;;;14.63;100.00
20909;BME280;10614;53.198;6.570;2023-09-19T08:16:58;100677.25;;;14.51;100.00
20909;BME280;10614;53.198;6.570;2023-09-19T08:19:04;100657.06;;;14.34;100.00
20909;BME280;10614;53.198;6.570;2023-09-19T08:21:07;100636.53;;;14.24;100.00
20909;BME280;10614;53.198;6.570;2023-09-19T08:23:11;100654.63;;;14.46;100.00
20909;BME280;10614;53.198;6.570;2023-09-19T08:25:14;100652.94;;;14.45;100.00
20909;BME280;10614;53.198;6.570;2023-09-19T08:27:22;100663.88;;;14.54;100.00
20909;BME280;10614;53.198;6.570;2023-09-19T08:29:27;100646.13;;;14.41;100.00
20909;BME280;10614;53.198;6.570;2023-09-19T08:31:30;100655.88;;;14.40;100.00
20909;BME280;10614;53.198;6.570;2023-09-19T08:33:34;100659.09;;;14.45;100.00
20909;BME280;10614;53.198;6.570;2023-09-19T08:35:41;100646.31;;;14.38;100.00
20909;BME280;10614;53.198;6.570;2023-09-19T08:37:43;100654.44;;;14.49;100.00
20909;BME280;10614;53.198;6.570;2023-09-19T08:39:47;100656.16;;;14.50;100.00
20909;BME280;10614;53.198;6.570;2023-09-19T08:41:51;100680.25;;;14.61;100.00
20909;BME280;10614;53.198;6.570;2023-09-19T08:43:59;100658.19;;;14.61;100.00
20909;BME280;10614;53.198;6.570;2023-09-19T08:46:14;100662.66;;;14.74;100.00
20909;BME280;10614;53.198;6.570;2023-09-19T08:48:24;100648.66;;;14.72;100.00
20909;BME280;10614;53.198;6.570;2023-09-19T08:50:30;100638.53;;;14.79;100.00
20909;BME280;10614;53.198;6.570;2023-09-19T08:52:41;100643.19;;;14.90;100.00
20909;BME280;10614;53.198;6.570;2023-09-19T08:54:44;100645.56;;;14.94;100.00
20909;BME280;10614;53.198;6.570;2023-09-19T08:56:51;100620.09;;;14.92;100.00
20909;BME280;10614;53.198;6.570;2023-09-19T08:59:00;100610.63;;;14.88;100.00
20909;BME280;10614;53.198;6.570;2023-09-19T09:01:05;100647.38;;;15.08;100.00
20909;BME280;10614;53.198;6.570;2023-09-19T09:03:12;100659.84;;;15.20;100.00
20909;BME280;10614;53.198;6.570;2023-09-19T09:05:22;100634.75;;;15.12;100.00
20909;BME280;10614;53.198;6.570;2023-09-19T09:07:26;100634.75;;;15.12;100.00
20909;BME280;10614;53.198;6.570;2023-09-19T09:09:31;100673.50;;;15.43;100.00
20909;BME280;10614;53.198;6.570;2023-09-19T09:11:36;100655.22;;;15.38;100.00
20909;BME280;10614;53.198;6.570;2023-09-19T09:13:41;100623.84;;;15.31;100.00
20909;BME280;10614;53.198;6.570;2023-09-19T09:15:46;100679.31;;;15.62;100.00
20909;BME280;10614;53.198;6.570;2023-09-19T09:17:53;100650.16;;;15.48;100.00
20909;BME280;10614;53.198;6.570;2023-09-19T09:19:56;100662.09;;;15.55;100.00
20909;BME280;10614;53.198;6.570;2023-09-19T09:22:08;100667.31;;;15.71;100.00
20909;BME280;10614;53.198;6.570;2023-09-19T09:24:26;100625.34;;;15.49;100.00
20909;BME280;10614;53.198;6.570;2023-09-19T09:26:48;100660.38;;;15.69;100.00
20909;BME280;10614;53.198;6.570;2023-09-19T09:28:51;100628.75;;;15.51;100.00
20909;BME280;10614;53.198;6.570;2023-09-19T09:31:01;100629.72;;;15.50;100.00
20909;BME280;10614;53.198;6.570;2023-09-19T09:33:09;100658.47;;;15.71;100.00
20909;BME280;10614;53.198;6.570;2023-09-19T09:35:11;100658.00;;;15.78;100.00
20909;BME280;10614;53.198;6.570;2023-09-19T09:37:22;100658.16;;;15.90;100.00
20909;BME280;10614;53.198;6.570;2023-09-19T09:39:30;100647.34;;;15.93;100.00
20909;BME280;10614;53.198;6.570;2023-09-19T09:41:36;100656.94;;;16.08;100.00
20909;BME280;10614;53.198;6.570;2023-09-19T09:43:55;100608.06;;;15.98;100.00
20909;BME280;10614;53.198;6.570;2023-09-19T09:46:12;100624.16;;;16.22;100.00
20909;BME280;10614;53.198;6.570;2023-09-19T09:48:32;100643.31;;;16.53;100.00
20909;BME280;10614;53.198;6.570;2023-09-19T09:50:46;100646.09;;;16.64;100.00
20909;BME280;10614;53.198;6.570;2023-09-19T09:52:57;100614.41;;;16.48;100.00
20909;BME280;10614;53.198;6.570;2023-09-19T09:55:10;100645.78;;;16.68;100.00
20909;BME280;10614;53.198;6.570;2023-09-19T09:57:29;100633.03;;;16.61;100.00
20909;BME280;10614;53.198;6.570;2023-09-19T09:59:53;100655.78;;;16.78;100.00
20909;BME280;10614;53.198;6.570;2023-09-19T10:02:02;100643.94;;;16.83;100.00
20909;BME280;10614;53.198;6.570;2023-09-19T10:04:06;100640.41;;;16.83;100.00
20909;BME280;10614;53.198;6.570;2023-09-19T10:19:23;100624.47;;;16.96;100.00
20909;BME280;10614;53.198;6.570;2023-09-19T10:21:26;100622.22;;;17.02;100.00
20909;BME280;10614;53.198;6.570;2023-09-19T10:23:31;100615.69;;;17.06;100.00
20909;BME280;10614;53.198;6.570;2023-09-19T10:59:05;100621.41;;;17.63;100.00
20909;BME280;10614;53.198;6.570;2023-09-19T11:01:08;100574.75;;;17.46;100.00
20909;BME280;10614;53.198;6.570;2023-09-19T11:03:23;100607.31;;;17.73;100.00
20909;BME280;10614;53.198;6.570;2023-09-19T11:05:40;100565.41;;;17.40;100.00
20909;BME280;10614;53.198;6.570;2023-09-19T11:08:00;100568.06;;;17.64;100.00
20909;BME280;10614;53.198;6.570;2023-09-19T11:10:06;100582.63;;;17.71;100.00
20909;BME280;10614;53.198;6.570;2023-09-19T11:12:48;100521.28;;;17.25;100.00
20909;BME280;10614;53.198;6.570;2023-09-19T11:14:52;100594.53;;;17.79;100.00
20909;BME280;10614;53.198;6.570;2023-09-19T11:22:25;100594.16;;;17.96;100.00
20909;BME280;10614;53.198;6.570;2023-09-19T11:24:31;100562.75;;;17.88;100.00
20909;BME280;10614;53.198;6.570;2023-09-19T11:26:40;100590.91;;;18.04;100.00
20909;BME280;10614;53.198;6.570;2023-09-19T11:28:48;100559.31;;;17.75;100.00
20909;BME280;10614;53.198;6.570;2023-09-19T11:36:36;100528.09;;;17.53;100.00
20909;BME280;10614;53.198;6.570;2023-09-19T11:38:57;100520.66;;;17.69;100.00
20909;BME280;10614;53.198;6.570;2023-09-19T11:41:39;100573.06;;;18.28;100.00
20909;BME280;10614;53.198;6.570;2023-09-19T11:43:41;100579.38;;;18.39;100.00
20909;BME280;10614;53.198;6.570;2023-09-19T11:46:05;100541.88;;;18.06;100.00
20909;BME280;10614;53.198;6.570;2023-09-19T11:48:07;100555.84;;;18.21;100.00
20909;BME280;10614;53.198;6.570;2023-09-19T11:50:10;100543.38;;;18.22;100.00
20909;BME280;10614;53.198;6.570;2023-09-19T11:52:21;100536.72;;;18.27;100.00
20909;BME280;10614;53.198;6.570;2023-09-19T11:54:25;100516.84;;;18.20;100.00
20909;BME280;10614;53.198;6.570;2023-09-19T11:56:38;100556.88;;;18.43;100.00
20909;BME280;10614;53.198;6.570;2023-09-19T11:58:41;100527.50;;;18.20;100.00
20909;BME280;10614;53.198;6.570;2023-09-19T12:00:44;100519.25;;;18.12;100.00
20909;BME280;10614;53.198;6.570;2023-09-19T12:02:49;100500.19;;;17.83;100.00
20909;BME280;10614;53.198;6.570;2023-09-19T12:04:56;100502.66;;;17.73;100.00
20909;BME280;10614;53.198;6.570;2023-09-19T12:06:58;100534.38;;;17.76;100.00
20909;BME280;10614;53.198;6.570;2023-09-19T12:09:02;100509.13;;;17.58;100.00
20909;BME280;10614;53.198;6.570;2023-09-19T12:11:15;100511.53;;;17.49;100.00
20909;BME280;10614;53.198;6.570;2023-09-19T12:13:17;100522.56;;;17.56;100.00
20909;BME280;10614;53.198;6.570;2023-09-19T12:15:23;100556.19;;;17.57;100.00
20909;BME280;10614;53.198;6.570;2023-09-19T12:17:36;100498.84;;;17.29;100.00
20909;BME280;10614;53.198;6.570;2023-09-19T12:19:49;100544.34;;;17.61;100.00
20909;BME280;10614;53.198;6.570;2023-09-19T12:21:55;100545.69;;;17.67;100.00
20909;BME280;10614;53.198;6.570;2023-09-19T12:24:07;100543.88;;;17.67;100.00
20909;BME280;10614;53.198;6.570;2023-09-19T12:26:13;100542.97;;;17.56;100.00
20909;BME280;10614;53.198;6.570;2023-09-19T12:28:15;100546.19;;;17.61;100.00
20909;BME280;10614;53.198;6.570;2023-09-19T12:30:18;100515.13;;;17.48;100.00
20909;BME280;10614;53.198;6.570;2023-09-19T12:32:34;100513.78;;;17.43;100.00
20909;BME280;10614;53.198;6.570;2023-09-19T12:34:36;100513.63;;;17.33;100.00
20909;BME280;10614;53.198;6.570;2023-09-19T12:36:44;100479.97;;;17.08;100.00
20909;BME280;10614;53.198;6.570;2023-09-19T12:38:48;100518.19;;;17.31;100.00
20909;BME280;10614;53.198;6.570;2023-09-19T12:40:52;100524.88;;;17.37;100.00
20909;BME280;10614;53.198;6.570;2023-09-19T12:42:55;100499.97;;;17.38;100.00
20909;BME280;10614;53.198;6.570;2023-09-19T12:44:59;100470.31;;;17.31;100.00
20909;BME280;10614;53.198;6.570;2023-09-19T12:47:12;100495.75;;;17.46;100.00
20909;BME280;10614;53.198;6.570;2023-09-19T12:49:16;100511.91;;;17.56;100.00
20909;BME280;10614;53.198;6.570;2023-09-19T12:51:19;100503.53;;;17.49;100.00
20909;BME280;10614;53.198;6.570;2023-09-19T12:53:25;100490.19;;;17.38;100.00
20909;BME280;10614;53.198;6.570;2023-09-19T12:55:30;100506.59;;;17.56;100.00
20909;BME280;10614;53.198;6.570;2023-09-19T12:57:34;100495.56;;;17.49;100.00
20909;BME280;10614;53.198;6.570;2023-09-19T12:59:37;100484.78;;;17.51;100.00
20909;BME280;10614;53.198;6.570;2023-09-19T13:01:40;100511.22;;;17.65;100.00
20909;BME280;10614;53.198;6.570;2023-09-19T13:04:12;100508.44;;;17.67;100.00
20909;BME280;10614;53.198;6.570;2023-09-19T13:06:35;100499.16;;;17.48;100.00
20909;BME280;10614;53.198;6.570;2023-09-19T13:08:44;100505.88;;;17.54;100.00
20909;BME280;10614;53.198;6.570;2023-09-19T13:11:07;100466.22;;;17.38;100.00
20909;BME280;10614;53.198;6.570;2023-09-19T13:13:24;100489.88;;;17.30;100.00
20909;BME280;10614;53.198;6.570;2023-09-19T13:15:28;100494.53;;;17.39;100.00
20909;BME280;10614;53.198;6.570;2023-09-19T13:17:42;100509.19;;;17.45;100.00
20909;BME280;10614;53.198;6.570;2023-09-19T13:19:47;100510.03;;;17.45;100.00
20909;BME280;10614;53.198;6.570;2023-09-19T13:21:54;100474.00;;;17.17;100.00
20909;BME280;10614;53.198;6.570;2023-09-19T13:24:18;100521.44;;;17.47;100.00
20909;BME280;10614;53.198;6.570;2023-09-19T13:26:20;100501.09;;;17.22;100.00
20909;BME280;10614;53.198;6.570;2023-09-19T13:28:24;100481.06;;;17.05;100.00
20909;BME280;10614;53.198;6.570;2023-09-19T13:30:28;100460.50;;;16.83;100.00
20909;BME280;10614;53.198;6.570;2023-09-19T13:32:32;100514.13;;;17.14;100.00
20909;BME280;10614;53.198;6.570;2023-09-19T13:34:34;100513.63;;;16.96;100.00
20909;BME280;10614;53.198;6.570;2023-09-19T13:36:36;100517.03;;;16.98;100.00
20909;BME280;10614;53.198;6.570;2023-09-19T13:38:39;100483.38;;;16.86;100.00
20909;BME280;10614;53.198;6.570;2023-09-19T13:40:43;100498.41;;;16.98;100.00
20909;BME280;10614;53.198;6.570;2023-09-19T13:42:45;100507.47;;;16.96;100.00
20909;BME280;10614;53.198;6.570;2023-09-19T13:44:49;100544.53;;;17.10;100.00
20909;BME280;10614;53.198;6.570;2023-09-19T13:46:53;100522.44;;;16.97;100.00
20909;BME280;10614;53.198;6.570;2023-09-19T13:48:57;100490.25;;;16.76;100.00
20909;BME280;10614;53.198;6.570;2023-09-19T13:50:59;100484.19;;;16.86;100.00
20909;BME280;10614;53.198;6.570;2023-09-19T13:53:01;100458.13;;;16.92;100.00